createdAt,value
2022-09-24T00:01:29.124Z,26.88
2022-09-24T00:04:02.344Z,21.35
2022-09-24T00:06:30.767Z,19.38
2022-09-24T00:08:58.510Z,18.90
2022-09-24T00:11:28.756Z,19.73
2022-09-24T00:13:57.243Z,17.58
2022-09-24T00:16:26.398Z,20.55
2022-09-24T00:18:54.105Z,17.13
2022-09-24T00:21:26.919Z,17.92
2022-09-24T00:23:56.382Z,14.20
2022-09-24T00:26:41.748Z,18.40
2022-09-24T00:29:11.670Z,19.48
2022-09-24T00:31:38.839Z,19.90
2022-09-24T00:34:05.726Z,17.13
2022-09-24T00:36:32.957Z,16.98
2022-09-24T00:39:00.489Z,19.25
2022-09-24T00:41:30.279Z,17.42
2022-09-24T00:43:58.384Z,17.48
2022-09-24T00:46:31.800Z,16.98
2022-09-24T00:49:11.215Z,14.93
2022-09-24T00:51:38.517Z,16.42
2022-09-24T00:54:09.092Z,17.88
2022-09-24T00:56:38.349Z,16.00
2022-09-24T00:59:06.626Z,16.10
2022-09-24T01:01:33.829Z,16.55
2022-09-24T01:04:01.628Z,20.27
2022-09-24T01:06:28.640Z,18.77
2022-09-24T01:08:57.109Z,18.60
2022-09-24T01:11:45.157Z,18.50
2022-09-24T01:14:27.458Z,38.08
2022-09-24T01:16:59.265Z,28.30
2022-09-24T01:19:57.171Z,18.02
2022-09-24T01:22:36.204Z,22.83
2022-09-24T01:25:31.129Z,17.95
2022-09-24T01:28:04.902Z,21.50
2022-09-24T01:30:35.242Z,18.10
2022-09-24T01:33:03.840Z,16.02
2022-09-24T01:35:39.974Z,19.67
2022-09-24T01:38:18.442Z,15.63
2022-09-24T01:40:46.652Z,17.05
2022-09-24T01:43:15.439Z,17.58
2022-09-24T01:45:42.708Z,15.63
2022-09-24T01:48:09.866Z,18.33
2022-09-24T01:50:52.052Z,18.45
2022-09-24T01:53:21.737Z,18.25
2022-09-24T01:55:58.253Z,16.23
2022-09-24T01:58:31.395Z,15.45
2022-09-24T02:01:06.069Z,19.25
2022-09-24T02:03:37.057Z,15.88
2022-09-24T02:06:11.003Z,20.40
2022-09-24T02:08:40.717Z,18.83
2022-09-24T02:11:07.973Z,18.75
2022-09-24T02:13:39.666Z,16.92
2022-09-24T02:16:09.665Z,20.75
2022-09-24T02:18:40.243Z,22.88
2022-09-24T02:21:10.878Z,18.17
2022-09-24T02:23:41.904Z,17.27
2022-09-24T02:26:09.148Z,20.70
2022-09-24T02:28:36.004Z,17.17
2022-09-24T02:31:10.155Z,17.23
2022-09-24T02:33:57.733Z,20.23
2022-09-24T02:36:25.121Z,19.27
2022-09-24T02:38:52.978Z,17.73
2022-09-24T02:41:24.000Z,17.85
2022-09-24T02:43:51.693Z,20.70
2022-09-24T02:46:19.105Z,18.88
2022-09-24T02:48:46.163Z,20.20
2022-09-24T02:51:13.377Z,19.73
2022-09-24T02:53:40.185Z,22.67
2022-09-24T02:56:08.101Z,19.13
2022-09-24T02:58:37.385Z,20.98
2022-09-24T03:01:05.367Z,20.25
2022-09-24T03:03:32.679Z,22.15
2022-09-24T03:05:59.795Z,22.67
2022-09-24T03:08:27.199Z,22.08
2022-09-24T03:10:56.182Z,26.52
2022-09-24T03:13:23.695Z,28.92
2022-09-24T03:15:50.970Z,23.95
2022-09-24T03:21:15.008Z,31.15
2022-09-24T03:23:41.907Z,22.88
2022-09-24T03:26:09.150Z,22.60
2022-09-24T03:28:36.594Z,23.60
2022-09-24T03:31:04.201Z,23.58
2022-09-24T03:33:38.317Z,22.80
2022-09-24T03:36:07.983Z,24.40
2022-09-24T03:38:36.166Z,21.65
2022-09-24T03:41:03.966Z,24.88
2022-09-24T03:43:31.580Z,20.35
2022-09-24T03:45:58.432Z,17.45
2022-09-24T03:48:26.233Z,21.38
2022-09-24T03:50:54.328Z,20.00
2022-09-24T03:53:21.225Z,19.15
2022-09-24T03:55:58.751Z,22.92
2022-09-24T03:58:26.375Z,20.75
2022-09-24T04:00:54.056Z,24.80
2022-09-24T04:03:21.918Z,17.58
2022-09-24T04:05:51.360Z,24.15
2022-09-24T04:08:22.104Z,19.38
2022-09-24T04:10:49.919Z,20.67
2022-09-24T04:13:18.449Z,19.73
2022-09-24T04:15:45.994Z,19.02
2022-09-24T04:18:12.888Z,20.65
2022-09-24T04:20:40.027Z,21.02
2022-09-24T04:23:07.069Z,25.55
2022-09-24T04:25:34.355Z,22.08
2022-09-24T04:28:03.850Z,21.17
2022-09-24T04:30:31.783Z,19.55
2022-09-24T04:33:01.030Z,21.88
2022-09-24T04:35:30.164Z,18.30
2022-09-24T04:37:57.525Z,21.77
2022-09-24T04:40:24.467Z,18.27
2022-09-24T04:42:52.624Z,18.65
2022-09-24T04:45:20.350Z,18.73
2022-09-24T04:47:57.441Z,18.95
2022-09-24T04:50:27.359Z,21.60
2022-09-24T04:52:55.027Z,20.63
2022-09-24T04:55:23.226Z,19.38
2022-09-24T04:57:51.178Z,17.80
2022-09-24T05:00:20.637Z,20.60
2022-09-24T05:02:47.836Z,21.67
2022-09-24T05:05:15.217Z,18.77
2022-09-24T05:07:44.620Z,21.33
2022-09-24T05:10:11.531Z,17.55
2022-09-24T05:12:40.967Z,20.88
2022-09-24T05:15:08.261Z,21.98
2022-09-24T05:17:38.879Z,20.52
2022-09-24T05:20:07.511Z,20.33
2022-09-24T05:22:34.402Z,19.13
2022-09-24T05:25:01.249Z,18.73
2022-09-24T05:27:28.327Z,19.17
2022-09-24T05:29:56.148Z,18.00
2022-09-24T05:32:22.991Z,21.10
2022-09-24T05:34:51.093Z,19.52
2022-09-24T05:37:18.479Z,18.70
2022-09-24T05:39:45.461Z,18.90
2022-09-24T05:42:16.133Z,19.60
2022-09-24T05:44:46.414Z,20.52
2022-09-24T05:47:16.399Z,19.45
2022-09-24T05:49:43.228Z,18.00
2022-09-24T05:52:10.124Z,21.80
2022-09-24T05:54:37.163Z,19.58
2022-09-24T05:57:04.087Z,24.95
2022-09-24T05:59:31.071Z,18.55
2022-09-24T06:01:58.605Z,19.90
2022-09-24T06:04:25.514Z,19.00
2022-09-24T06:06:52.377Z,19.70
2022-09-24T06:09:19.562Z,19.95
2022-09-24T06:11:46.722Z,19.27
2022-09-24T06:14:15.074Z,20.73
2022-09-24T06:16:42.479Z,18.55
2022-09-24T06:19:09.436Z,20.02
2022-09-24T06:21:36.407Z,20.67
2022-09-24T06:24:03.551Z,19.23
2022-09-24T06:26:31.139Z,23.88
2022-09-24T06:29:03.709Z,20.00
2022-09-24T06:31:32.066Z,22.90
2022-09-24T06:33:59.189Z,18.33
2022-09-24T06:36:26.668Z,20.35
2022-09-24T06:38:53.960Z,17.08
2022-09-24T06:41:21.293Z,19.88
2022-09-24T06:43:48.217Z,16.35
2022-09-24T06:46:15.971Z,17.80
2022-09-24T06:48:43.011Z,18.73
2022-09-24T06:51:10.118Z,16.15
2022-09-24T06:53:37.509Z,17.48
2022-09-24T06:56:04.650Z,19.27
2022-09-24T06:58:31.879Z,16.90
2022-09-24T07:01:02.844Z,16.20
2022-09-24T07:03:32.142Z,15.52
2022-09-24T07:06:04.326Z,21.65
2022-09-24T07:08:32.017Z,15.68
2022-09-24T07:10:59.271Z,14.10
2022-09-24T07:13:26.365Z,18.63
2022-09-24T07:15:53.663Z,15.45
2022-09-24T07:18:20.905Z,14.77
2022-09-24T07:20:54.481Z,12.73
2022-09-24T07:23:22.400Z,17.40
2022-09-24T07:25:50.488Z,16.92
2022-09-24T07:28:18.860Z,15.35
2022-09-24T07:30:46.003Z,15.55
2022-09-24T07:33:12.954Z,14.65
2022-09-24T07:35:40.534Z,14.10
2022-09-24T07:38:12.212Z,12.98
2022-09-24T07:40:39.694Z,13.70
2022-09-24T07:43:12.431Z,12.05
2022-09-24T07:45:40.535Z,12.23
2022-09-24T07:48:08.225Z,12.98
2022-09-24T07:50:39.348Z,11.35
2022-09-24T07:53:06.988Z,12.07
2022-09-24T07:55:39.439Z,10.93
2022-09-24T07:58:13.829Z,12.60
2022-09-24T08:00:41.646Z,11.30
2022-09-24T08:03:08.484Z,13.00
2022-09-24T08:05:35.466Z,11.45
2022-09-24T08:08:02.547Z,9.55
2022-09-24T08:10:29.569Z,11.50
2022-09-24T08:12:59.505Z,10.80
2022-09-24T08:15:26.707Z,11.65
2022-09-24T08:17:53.579Z,10.65
2022-09-24T08:20:21.625Z,9.68
2022-09-24T08:22:48.760Z,9.35
2022-09-24T08:25:15.670Z,11.35
2022-09-24T08:27:42.609Z,9.38
2022-09-24T08:30:10.846Z,8.77
2022-09-24T08:32:37.757Z,8.80
2022-09-24T08:35:05.247Z,14.52
2022-09-24T08:37:32.808Z,9.40
2022-09-24T08:39:59.660Z,9.38
2022-09-24T08:42:44.191Z,11.40
2022-09-24T08:45:30.294Z,7.63
2022-09-24T08:48:20.312Z,10.32
2022-09-24T08:51:01.352Z,6.75
2022-09-24T08:54:00.151Z,6.22
2022-09-24T08:56:30.219Z,7.32
2022-09-24T08:59:01.256Z,5.43
2022-09-24T09:01:36.865Z,5.05
2022-09-24T09:04:41.665Z,6.60
2022-09-24T09:07:16.447Z,4.93
2022-09-24T09:10:01.443Z,5.70
2022-09-24T09:12:35.889Z,7.38
2022-09-24T09:15:07.180Z,8.27
2022-09-24T09:17:57.457Z,6.43
2022-09-24T09:20:32.166Z,6.78
2022-09-24T09:23:04.208Z,6.20
2022-09-24T09:25:34.683Z,5.28
2022-09-24T09:28:07.165Z,5.65
2022-09-24T09:30:59.918Z,6.22
2022-09-24T09:33:50.147Z,6.88
2022-09-24T09:36:16.987Z,5.80
2022-09-24T09:39:12.010Z,3.60
2022-09-24T09:41:49.406Z,4.35
2022-09-24T09:44:23.025Z,4.78
2022-09-24T09:46:54.321Z,4.65
2022-09-24T09:49:22.927Z,7.30
2022-09-24T09:51:49.930Z,5.00
2022-09-24T09:54:16.784Z,5.00
2022-09-24T09:56:49.095Z,4.28
2022-09-24T09:59:27.196Z,4.43
2022-09-24T10:01:57.824Z,5.47
2022-09-24T10:04:43.448Z,4.38
2022-09-24T10:07:12.366Z,4.85
2022-09-24T10:09:40.583Z,3.22
2022-09-24T10:12:22.323Z,4.88
2022-09-24T10:14:58.729Z,3.78
2022-09-24T10:17:29.384Z,3.72
2022-09-24T10:19:56.768Z,8.57
2022-09-24T10:22:25.313Z,4.32
2022-09-24T10:24:53.912Z,3.88
2022-09-24T10:27:34.321Z,4.55
2022-09-24T10:30:23.584Z,3.33
2022-09-24T10:32:57.346Z,3.63
2022-09-24T10:35:36.242Z,3.60
2022-09-24T10:38:15.804Z,4.85
2022-09-24T10:40:42.798Z,4.85
2022-09-24T10:43:21.239Z,9.13
2022-09-24T10:46:02.088Z,5.45
2022-09-24T10:48:38.504Z,3.97
2022-09-24T10:51:29.610Z,18.83
2022-09-24T10:54:22.431Z,8.60
2022-09-24T10:56:55.090Z,3.08
2022-09-24T10:59:41.317Z,3.47
2022-09-24T11:02:14.029Z,2.83
2022-09-24T11:04:51.560Z,4.03
2022-09-24T11:07:25.756Z,5.32
2022-09-24T11:10:23.862Z,6.10
2022-09-24T11:13:10.944Z,4.45
2022-09-24T11:16:09.469Z,3.83
2022-09-24T11:18:42.053Z,4.22
2022-09-24T11:21:27.960Z,5.32
2022-09-24T11:24:03.964Z,4.63
2022-09-24T11:26:52.942Z,6.20
2022-09-24T11:29:58.909Z,4.85
2022-09-24T11:33:15.110Z,3.10
2022-09-24T11:36:08.578Z,6.10
2022-09-24T11:39:01.280Z,4.90
2022-09-24T11:42:00.637Z,5.95
2022-09-24T11:45:02.351Z,5.82
2022-09-24T11:47:41.529Z,6.00
2022-09-24T11:50:38.306Z,6.75
2022-09-24T11:53:10.793Z,6.53
2022-09-24T11:55:53.434Z,5.07
2022-09-24T11:58:33.778Z,3.88
2022-09-24T12:01:32.477Z,4.63
2022-09-24T12:04:22.656Z,5.75
2022-09-24T12:07:02.913Z,6.45
2022-09-24T12:09:40.957Z,7.35
2022-09-24T12:12:12.820Z,3.75
2022-09-24T12:14:53.662Z,3.97
2022-09-24T12:17:34.235Z,5.70
2022-09-24T12:20:18.727Z,5.15
2022-09-24T12:22:51.795Z,4.68
2022-09-24T12:25:18.676Z,4.13
2022-09-24T12:27:46.207Z,3.72
2022-09-24T12:30:31.461Z,6.15
2022-09-24T12:32:59.543Z,2.60
2022-09-24T12:35:28.970Z,4.50
2022-09-24T12:38:04.323Z,3.63
2022-09-24T12:41:04.172Z,3.22
2022-09-24T12:43:37.748Z,3.17
2022-09-24T12:46:06.489Z,3.60
2022-09-24T12:48:44.667Z,4.70
2022-09-24T12:51:12.780Z,7.90
2022-09-24T12:53:42.469Z,2.85
2022-09-24T12:56:10.423Z,2.85
2022-09-24T12:58:43.348Z,3.40
2022-09-24T13:01:25.786Z,4.13
2022-09-24T13:04:06.536Z,4.32
2022-09-24T13:06:37.809Z,3.72
2022-09-24T13:09:26.051Z,2.70
2022-09-24T13:12:15.137Z,3.42
2022-09-24T13:14:47.504Z,5.78
2022-09-24T13:17:14.705Z,3.42
2022-09-24T13:19:44.370Z,6.15
2022-09-24T13:22:35.599Z,4.40
2022-09-24T13:25:08.685Z,4.07
2022-09-24T13:27:37.988Z,2.45
2022-09-24T13:30:26.789Z,2.22
2022-09-24T13:33:00.325Z,3.65
2022-09-24T13:35:31.797Z,3.83
2022-09-24T13:38:33.127Z,3.08
2022-09-24T13:41:20.287Z,3.03
2022-09-24T13:43:52.667Z,2.90
2022-09-24T13:46:20.997Z,7.03
2022-09-24T13:48:58.638Z,3.55
2022-09-24T13:51:30.374Z,3.42
2022-09-24T13:54:06.494Z,3.70
2022-09-24T13:56:33.566Z,4.00
2022-09-24T13:59:07.045Z,3.95
2022-09-24T14:01:40.548Z,4.10
2022-09-24T14:04:16.633Z,6.00
2022-09-24T14:06:50.794Z,4.88
2022-09-24T14:09:27.847Z,5.53
2022-09-24T14:11:59.557Z,3.50
2022-09-24T14:14:29.152Z,3.58
2022-09-24T14:17:09.563Z,5.35
2022-09-24T14:19:36.734Z,4.00
2022-09-24T14:22:06.018Z,7.03
2022-09-24T14:24:42.485Z,9.85
2022-09-24T14:27:15.715Z,6.15
2022-09-24T14:29:48.828Z,9.45
2022-09-24T14:32:23.206Z,5.60
2022-09-24T14:34:55.260Z,4.95
2022-09-24T14:37:31.310Z,10.73
2022-09-24T14:40:02.823Z,3.97
2022-09-24T14:42:42.098Z,5.00
2022-09-24T14:45:10.394Z,3.58
2022-09-24T14:47:37.648Z,3.00
2022-09-24T14:50:22.957Z,6.65
2022-09-24T14:52:56.941Z,5.82
2022-09-24T14:55:42.226Z,5.35
2022-09-24T14:58:28.028Z,5.07
2022-09-24T15:01:00.172Z,6.50
2022-09-24T15:03:50.222Z,4.13
2022-09-24T15:06:29.165Z,4.15
2022-09-24T15:09:01.330Z,2.38
2022-09-24T15:11:36.628Z,7.80
2022-09-24T15:14:16.887Z,24.13
2022-09-24T15:16:46.893Z,13.80
2022-09-24T15:19:16.893Z,16.83
2022-09-24T15:21:45.178Z,19.00
2022-09-24T15:24:12.182Z,10.55
2022-09-24T15:26:42.767Z,20.08
2022-09-24T15:29:19.037Z,28.88
2022-09-24T15:31:46.252Z,46.20
2022-09-24T15:34:17.723Z,28.40
2022-09-24T15:36:54.103Z,11.68
2022-09-24T15:39:21.564Z,10.68
2022-09-24T15:41:48.390Z,3.47
2022-09-24T15:44:31.315Z,12.75
2022-09-24T15:47:00.896Z,21.67
2022-09-24T15:49:27.702Z,30.27
2022-09-24T15:52:02.243Z,22.23
2022-09-24T15:54:29.350Z,9.35
2022-09-24T15:56:56.173Z,6.32
2022-09-24T15:59:23.569Z,4.85
2022-09-24T16:01:52.290Z,4.10
2022-09-24T16:04:19.227Z,5.30
2022-09-24T16:06:46.159Z,5.28
2022-09-24T16:09:13.235Z,8.38
2022-09-24T16:11:40.130Z,16.48
2022-09-24T16:14:07.516Z,17.30
2022-09-24T16:16:34.803Z,15.57
2022-09-24T16:19:01.917Z,7.05
2022-09-24T16:21:28.830Z,10.52
2022-09-24T16:23:56.711Z,11.55
2022-09-24T16:26:24.041Z,7.20
2022-09-24T16:28:51.748Z,8.88
2022-09-24T16:31:19.525Z,19.98
2022-09-24T16:33:47.032Z,15.07
2022-09-24T16:36:14.046Z,15.63
2022-09-24T17:39:13.356Z,17.80
2022-09-24T17:41:40.210Z,13.02
2022-09-24T17:44:07.310Z,6.55
2022-09-24T17:46:35.980Z,12.63
2022-09-24T17:49:03.257Z,30.45
2022-09-24T17:51:32.795Z,23.30
2022-09-24T17:54:02.153Z,26.67
2022-09-24T17:56:32.071Z,27.08
2022-09-24T17:58:59.904Z,12.38
2022-09-24T18:01:29.924Z,9.15
2022-09-24T18:03:58.413Z,14.93
2022-09-24T18:06:31.925Z,9.10
2022-09-24T18:09:00.580Z,21.60
2022-09-24T18:11:30.503Z,16.23
2022-09-24T18:13:59.495Z,19.77
2022-09-24T18:16:31.322Z,13.52
2022-09-24T18:18:59.863Z,6.03
2022-09-24T18:21:28.060Z,7.72
2022-09-24T18:23:56.605Z,12.48
2022-09-24T18:26:35.332Z,9.10
2022-09-24T18:29:06.176Z,6.47
2022-09-24T18:31:33.355Z,6.72
2022-09-24T18:34:05.937Z,4.65
2022-09-24T18:36:40.496Z,7.07
2022-09-24T18:39:11.643Z,4.20
2022-09-24T18:41:39.323Z,6.80
2022-09-24T18:44:06.433Z,9.85
2022-09-24T18:46:33.660Z,5.70
2022-09-24T18:49:02.142Z,4.78
2022-09-24T18:51:30.462Z,7.00
2022-09-24T18:54:06.015Z,10.18
2022-09-24T18:56:33.706Z,9.30
2022-09-24T18:59:08.587Z,8.90
2022-09-24T19:01:37.333Z,13.77
2022-09-24T19:04:05.454Z,10.52
2022-09-24T19:06:34.903Z,8.23
2022-09-24T19:09:02.002Z,7.72
2022-09-24T19:11:31.544Z,6.25
2022-09-24T19:13:59.449Z,9.32
2022-09-24T19:16:26.687Z,11.85
2022-09-24T19:18:54.180Z,32.22
2022-09-24T19:21:24.209Z,29.25
2022-09-24T19:23:56.310Z,33.25
2022-09-24T19:26:26.234Z,15.68
2022-09-24T19:28:53.294Z,13.95
2022-09-24T19:31:24.315Z,17.15
2022-09-24T19:33:52.827Z,12.25
2022-09-24T19:36:20.166Z,21.17
2022-09-24T19:38:47.658Z,40.17
2022-09-24T19:41:24.877Z,28.80
2022-09-24T19:43:53.553Z,21.10
2022-09-24T19:46:24.251Z,10.45
2022-09-24T19:48:52.009Z,22.25
2022-09-24T19:51:24.104Z,25.45
2022-09-24T19:53:53.431Z,10.70
2022-09-24T19:56:22.546Z,10.95
2022-09-24T19:58:53.421Z,9.73
2022-09-24T20:01:22.259Z,9.30
2022-09-24T20:03:49.620Z,9.35
2022-09-24T20:06:22.729Z,15.55
2022-09-24T20:08:50.197Z,15.63
2022-09-24T20:11:20.896Z,12.52
2022-09-24T20:13:49.363Z,10.57
2022-09-24T20:16:21.768Z,8.90
2022-09-24T20:18:50.391Z,9.95
2022-09-24T20:21:18.896Z,10.15
2022-09-24T20:23:47.412Z,10.70
2022-09-24T20:26:34.770Z,15.10
2022-09-24T20:29:02.821Z,11.85
2022-09-24T20:31:29.950Z,9.75
2022-09-24T20:33:56.940Z,5.20
2022-09-24T20:36:25.352Z,5.65
2022-09-24T20:38:52.865Z,9.13
2022-09-24T20:41:22.290Z,11.65
2022-09-24T20:43:49.845Z,11.07
2022-09-24T20:46:21.810Z,12.88
2022-09-24T20:48:49.002Z,11.65
2022-09-24T20:51:18.386Z,11.50
2022-09-24T20:53:46.610Z,11.68
2022-09-24T20:56:14.366Z,9.05
2022-09-24T20:58:41.613Z,21.40
2022-09-24T21:01:09.471Z,16.73
2022-09-24T21:03:45.954Z,16.23
2022-09-24T21:06:14.944Z,10.88
2022-09-24T21:08:44.353Z,9.52
2022-09-24T21:11:13.536Z,12.27
2022-09-24T21:13:43.004Z,8.75
2022-09-24T21:16:10.245Z,11.18
2022-09-24T21:18:44.950Z,12.10
2022-09-24T21:21:20.079Z,11.52
2022-09-24T21:23:49.754Z,9.38
2022-09-24T21:26:27.962Z,12.40
2022-09-24T21:29:18.447Z,7.70
2022-09-24T21:31:46.951Z,13.05
2022-09-24T21:34:16.256Z,8.77
2022-09-24T21:36:45.628Z,10.15
2022-09-24T21:39:23.418Z,9.13
2022-09-24T21:41:54.979Z,12.57
2022-09-24T21:44:22.414Z,11.07
2022-09-24T21:46:50.928Z,11.20
2022-09-24T21:49:19.461Z,8.65
2022-09-24T21:51:47.605Z,9.70
2022-09-24T21:54:17.254Z,7.82
2022-09-24T21:56:45.069Z,9.38
2022-09-24T21:59:30.779Z,8.45
2022-09-24T22:01:57.772Z,7.82
2022-09-24T22:04:25.001Z,10.43
2022-09-24T22:06:52.598Z,11.27
2022-09-24T22:09:20.010Z,10.63
2022-09-24T22:11:47.150Z,7.80
2022-09-24T22:14:14.466Z,18.98
2022-09-24T22:16:41.449Z,19.90
2022-09-24T22:19:09.411Z,85.07
2022-09-24T22:21:36.817Z,47.80
2022-09-24T22:24:04.921Z,22.00
2022-09-24T22:26:32.648Z,15.15
2022-09-24T22:29:00.143Z,8.65
2022-09-24T22:31:27.219Z,12.02
2022-09-24T22:34:13.347Z,12.43
2022-09-24T22:36:40.502Z,12.18
2022-09-24T22:39:07.915Z,10.38
2022-09-24T22:41:40.093Z,8.25
2022-09-24T22:44:07.302Z,9.50
2022-09-24T22:46:36.405Z,8.48
2022-09-24T22:49:04.904Z,8.80
2022-09-24T22:51:32.634Z,8.73
2022-09-24T22:54:00.343Z,11.10
2022-09-24T22:56:28.400Z,8.85
2022-09-24T22:59:00.171Z,8.13
2022-09-24T23:01:36.946Z,9.95
2022-09-24T23:04:03.897Z,11.32
2022-09-24T23:06:32.934Z,10.02
2022-09-24T23:09:00.261Z,11.38
2022-09-24T23:11:29.766Z,10.25
2022-09-24T23:14:02.711Z,12.75
2022-09-24T23:16:32.050Z,10.43
2022-09-24T23:19:01.070Z,9.73
2022-09-24T23:21:31.293Z,12.80
2022-09-24T23:24:03.586Z,8.68
2022-09-24T23:26:31.604Z,10.48
2022-09-24T23:28:59.838Z,8.82
2022-09-24T23:31:37.118Z,12.95
2022-09-24T23:34:06.747Z,9.00
2022-09-24T23:36:34.593Z,7.07
2022-09-24T23:39:01.642Z,8.27
2022-09-24T23:41:30.946Z,9.48
2022-09-24T23:43:58.538Z,9.38
2022-09-24T23:46:25.475Z,8.80
2022-09-24T23:48:52.622Z,8.85
2022-09-24T23:51:19.616Z,12.10
2022-09-24T23:53:46.494Z,7.60
2022-09-24T23:56:13.813Z,7.88
2022-09-24T23:58:42.432Z,8.57
